sensor_id;sensor_type;location;lat;lon;timestamp;P1;durP1;ratioP1;P2;durP2;ratioP2
20443;SDS011;10381;53.730;10.010;2022-08-14T00:03:21;8.77;;;6.40;;
20443;SDS011;10381;53.730;10.010;2022-08-14T00:07:23;11.05;;;7.00;;
20443;SDS011;10381;53.730;10.010;2022-08-14T00:11:24;12.40;;;7.23;;
20443;SDS011;10381;53.730;10.010;2022-08-14T00:15:27;8.47;;;6.43;;
20443;SDS011;10381;53.730;10.010;2022-08-14T00:19:29;9.05;;;6.30;;
20443;SDS011;10381;53.730;10.010;2022-08-14T00:23:29;9.98;;;6.60;;
20443;SDS011;10381;53.730;10.010;2022-08-14T00:27:30;9.53;;;6.67;;
20443;SDS011;10381;53.730;10.010;2022-08-14T00:31:30;11.37;;;6.83;;
20443;SDS011;10381;53.730;10.010;2022-08-14T00:35:31;14.23;;;6.73;;
20443;SDS011;10381;53.730;10.010;2022-08-14T00:39:31;10.38;;;6.65;;
20443;SDS011;10381;53.730;10.010;2022-08-14T00:43:33;15.13;;;6.70;;
20443;SDS011;10381;53.730;10.010;2022-08-14T00:47:34;7.85;;;6.18;;
20443;SDS011;10381;53.730;10.010;2022-08-14T00:51:35;11.23;;;6.10;;
20443;SDS011;10381;53.730;10.010;2022-08-14T00:55:36;17.55;;;6.40;;
20443;SDS011;10381;53.730;10.010;2022-08-14T00:59:40;10.23;;;6.00;;
20443;SDS011;10381;53.730;10.010;2022-08-14T01:03:40;8.00;;;5.90;;
20443;SDS011;10381;53.730;10.010;2022-08-14T01:07:41;10.60;;;6.20;;
20443;SDS011;10381;53.730;10.010;2022-08-14T01:11:41;9.63;;;6.22;;
20443;SDS011;10381;53.730;10.010;2022-08-14T01:15:42;10.25;;;6.32;;
20443;SDS011;10381;53.730;10.010;2022-08-14T01:19:43;8.52;;;5.97;;
20443;SDS011;10381;53.730;10.010;2022-08-14T01:24:02;8.20;;;5.90;;
20443;SDS011;10381;53.730;10.010;2022-08-14T01:28:03;15.10;;;6.43;;
20443;SDS011;10381;53.730;10.010;2022-08-14T01:32:04;7.53;;;6.10;;
20443;SDS011;10381;53.730;10.010;2022-08-14T01:36:06;9.68;;;6.03;;
20443;SDS011;10381;53.730;10.010;2022-08-14T01:40:07;14.35;;;6.00;;
20443;SDS011;10381;53.730;10.010;2022-08-14T01:44:08;9.98;;;5.85;;
20443;SDS011;10381;53.730;10.010;2022-08-14T01:48:12;6.93;;;5.38;;
20443;SDS011;10381;53.730;10.010;2022-08-14T01:52:13;18.90;;;5.75;;
20443;SDS011;10381;53.730;10.010;2022-08-14T01:56:14;8.63;;;6.15;;
20443;SDS011;10381;53.730;10.010;2022-08-14T02:00:19;7.80;;;5.78;;
20443;SDS011;10381;53.730;10.010;2022-08-14T02:04:20;7.45;;;5.53;;
20443;SDS011;10381;53.730;10.010;2022-08-14T02:08:23;11.40;;;5.70;;
20443;SDS011;10381;53.730;10.010;2022-08-14T02:12:29;10.43;;;5.90;;
20443;SDS011;10381;53.730;10.010;2022-08-14T02:16:31;7.70;;;5.78;;
20443;SDS011;10381;53.730;10.010;2022-08-14T02:20:35;7.03;;;5.60;;
20443;SDS011;10381;53.730;10.010;2022-08-14T02:24:35;7.20;;;5.80;;
20443;SDS011;10381;53.730;10.010;2022-08-14T02:28:36;9.32;;;5.68;;
20443;SDS011;10381;53.730;10.010;2022-08-14T02:32:37;8.57;;;5.60;;
20443;SDS011;10381;53.730;10.010;2022-08-14T02:36:37;9.35;;;6.13;;
20443;SDS011;10381;53.730;10.010;2022-08-14T02:40:39;8.57;;;6.00;;
20443;SDS011;10381;53.730;10.010;2022-08-14T02:44:42;8.05;;;6.18;;
20443;SDS011;10381;53.730;10.010;2022-08-14T02:48:43;10.52;;;6.20;;
20443;SDS011;10381;53.730;10.010;2022-08-14T02:52:43;8.73;;;5.95;;
20443;SDS011;10381;53.730;10.010;2022-08-14T02:56:44;9.50;;;6.20;;
20443;SDS011;10381;53.730;10.010;2022-08-14T03:00:44;10.52;;;5.68;;
20443;SDS011;10381;53.730;10.010;2022-08-14T03:04:45;8.23;;;5.97;;
20443;SDS011;10381;53.730;10.010;2022-08-14T03:08:46;9.27;;;6.05;;
20443;SDS011;10381;53.730;10.010;2022-08-14T03:12:47;10.50;;;5.85;;
20443;SDS011;10381;53.730;10.010;2022-08-14T03:16:47;8.23;;;5.97;;
20443;SDS011;10381;53.730;10.010;2022-08-14T03:20:49;8.25;;;5.78;;
20443;SDS011;10381;53.730;10.010;2022-08-14T03:24:50;8.25;;;5.88;;
20443;SDS011;10381;53.730;10.010;2022-08-14T03:28:50;8.27;;;6.15;;
20443;SDS011;10381;53.730;10.010;2022-08-14T03:32:51;12.95;;;6.15;;
20443;SDS011;10381;53.730;10.010;2022-08-14T03:36:52;8.65;;;6.20;;
20443;SDS011;10381;53.730;10.010;2022-08-14T03:40:56;8.80;;;6.05;;
20443;SDS011;10381;53.730;10.010;2022-08-14T03:44:56;8.75;;;5.95;;
20443;SDS011;10381;53.730;10.010;2022-08-14T03:48:57;8.75;;;6.20;;
20443;SDS011;10381;53.730;10.010;2022-08-14T03:53:00;6.65;;;5.57;;
20443;SDS011;10381;53.730;10.010;2022-08-14T03:57:02;8.68;;;6.05;;
20443;SDS011;10381;53.730;10.010;2022-08-14T04:01:02;14.85;;;6.35;;
20443;SDS011;10381;53.730;10.010;2022-08-14T04:05:04;12.02;;;6.50;;
20443;SDS011;10381;53.730;10.010;2022-08-14T04:09:08;7.93;;;5.95;;
20443;SDS011;10381;53.730;10.010;2022-08-14T04:13:08;10.02;;;6.03;;
20443;SDS011;10381;53.730;10.010;2022-08-14T04:17:09;10.35;;;6.25;;
20443;SDS011;10381;53.730;10.010;2022-08-14T04:21:10;10.73;;;6.05;;
20443;SDS011;10381;53.730;10.010;2022-08-14T04:25:11;8.98;;;5.85;;
20443;SDS011;10381;53.730;10.010;2022-08-14T04:29:12;7.40;;;5.50;;
20443;SDS011;10381;53.730;10.010;2022-08-14T04:33:12;11.00;;;5.88;;
20443;SDS011;10381;53.730;10.010;2022-08-14T04:37:13;8.93;;;5.90;;
20443;SDS011;10381;53.730;10.010;2022-08-14T04:41:32;8.38;;;6.25;;
20443;SDS011;10381;53.730;10.010;2022-08-14T04:45:51;12.05;;;5.68;;
20443;SDS011;10381;53.730;10.010;2022-08-14T04:49:51;8.50;;;6.03;;
20443;SDS011;10381;53.730;10.010;2022-08-14T04:53:52;6.83;;;5.67;;
20443;SDS011;10381;53.730;10.010;2022-08-14T04:57:54;9.65;;;5.05;;
20443;SDS011;10381;53.730;10.010;2022-08-14T05:01:54;6.65;;;5.25;;
20443;SDS011;10381;53.730;10.010;2022-08-14T05:05:59;7.18;;;4.53;;
20443;SDS011;10381;53.730;10.010;2022-08-14T05:10:00;13.25;;;5.13;;
20443;SDS011;10381;53.730;10.010;2022-08-14T05:14:01;6.80;;;5.13;;
20443;SDS011;10381;53.730;10.010;2022-08-14T05:18:06;5.65;;;4.53;;
20443;SDS011;10381;53.730;10.010;2022-08-14T05:22:11;10.70;;;4.82;;
20443;SDS011;10381;53.730;10.010;2022-08-14T05:26:11;12.70;;;5.10;;
20443;SDS011;10381;53.730;10.010;2022-08-14T05:30:12;8.13;;;5.15;;
20443;SDS011;10381;53.730;10.010;2022-08-14T05:34:13;7.88;;;4.85;;
20443;SDS011;10381;53.730;10.010;2022-08-14T05:38:15;6.73;;;5.27;;
20443;SDS011;10381;53.730;10.010;2022-08-14T05:42:16;5.45;;;4.50;;
20443;SDS011;10381;53.730;10.010;2022-08-14T05:46:17;4.05;;;3.65;;
20443;SDS011;10381;53.730;10.010;2022-08-14T05:50:22;7.00;;;4.60;;
20443;SDS011;10381;53.730;10.010;2022-08-14T05:54:22;8.90;;;4.50;;
20443;SDS011;10381;53.730;10.010;2022-08-14T05:58:24;6.50;;;4.35;;
20443;SDS011;10381;53.730;10.010;2022-08-14T06:02:25;8.70;;;4.15;;
20443;SDS011;10381;53.730;10.010;2022-08-14T06:06:25;8.30;;;3.93;;
20443;SDS011;10381;53.730;10.010;2022-08-14T06:10:26;5.33;;;3.77;;
20443;SDS011;10381;53.730;10.010;2022-08-14T06:14:27;7.38;;;3.67;;
20443;SDS011;10381;53.730;10.010;2022-08-14T06:18:28;6.50;;;3.88;;
20443;SDS011;10381;53.730;10.010;2022-08-14T06:22:29;7.63;;;4.00;;
20443;SDS011;10381;53.730;10.010;2022-08-14T06:26:29;5.50;;;4.17;;
20443;SDS011;10381;53.730;10.010;2022-08-14T06:30:32;4.85;;;3.42;;
20443;SDS011;10381;53.730;10.010;2022-08-14T06:34:33;7.80;;;3.60;;
20443;SDS011;10381;53.730;10.010;2022-08-14T06:38:38;3.97;;;3.53;;
20443;SDS011;10381;53.730;10.010;2022-08-14T06:42:38;12.20;;;4.67;;
20443;SDS011;10381;53.730;10.010;2022-08-14T06:46:39;6.80;;;3.60;;
20443;SDS011;10381;53.730;10.010;2022-08-14T06:50:40;4.28;;;3.60;;
20443;SDS011;10381;53.730;10.010;2022-08-14T06:54:40;6.80;;;3.60;;
20443;SDS011;10381;53.730;10.010;2022-08-14T06:58:42;8.43;;;4.18;;
20443;SDS011;10381;53.730;10.010;2022-08-14T07:02:42;8.02;;;4.15;;
20443;SDS011;10381;53.730;10.010;2022-08-14T07:07:02;9.40;;;3.83;;
20443;SDS011;10381;53.730;10.010;2022-08-14T07:11:02;7.65;;;4.60;;
20443;SDS011;10381;53.730;10.010;2022-08-14T07:15:03;6.15;;;3.92;;
20443;SDS011;10381;53.730;10.010;2022-08-14T07:19:05;12.15;;;4.43;;
20443;SDS011;10381;53.730;10.010;2022-08-14T07:23:07;13.13;;;4.30;;
20443;SDS011;10381;53.730;10.010;2022-08-14T07:27:08;10.20;;;4.13;;
20443;SDS011;10381;53.730;10.010;2022-08-14T07:31:10;5.65;;;4.20;;
20443;SDS011;10381;53.730;10.010;2022-08-14T07:35:11;8.82;;;4.18;;
20443;SDS011;10381;53.730;10.010;2022-08-14T07:39:11;4.40;;;3.75;;
20443;SDS011;10381;53.730;10.010;2022-08-14T07:43:12;8.43;;;4.50;;
20443;SDS011;10381;53.730;10.010;2022-08-14T07:47:12;5.13;;;4.15;;
20443;SDS011;10381;53.730;10.010;2022-08-14T07:51:14;4.35;;;3.95;;
20443;SDS011;10381;53.730;10.010;2022-08-14T07:55:15;12.93;;;4.40;;
20443;SDS011;10381;53.730;10.010;2022-08-14T07:59:17;4.53;;;4.00;;
20443;SDS011;10381;53.730;10.010;2022-08-14T08:03:20;12.80;;;4.57;;
20443;SDS011;10381;53.730;10.010;2022-08-14T08:07:24;8.48;;;4.28;;
20443;SDS011;10381;53.730;10.010;2022-08-14T08:11:26;10.25;;;3.90;;
20443;SDS011;10381;53.730;10.010;2022-08-14T08:15:27;10.32;;;4.03;;
20443;SDS011;10381;53.730;10.010;2022-08-14T08:19:31;7.93;;;3.95;;
20443;SDS011;10381;53.730;10.010;2022-08-14T08:23:32;6.00;;;4.43;;
20443;SDS011;10381;53.730;10.010;2022-08-14T08:27:32;5.60;;;4.65;;
20443;SDS011;10381;53.730;10.010;2022-08-14T08:31:44;14.00;;;5.20;;
20443;SDS011;10381;53.730;10.010;2022-08-14T08:35:49;7.82;;;4.60;;
20443;SDS011;10381;53.730;10.010;2022-08-14T08:39:50;6.75;;;4.70;;
20443;SDS011;10381;53.730;10.010;2022-08-14T08:43:50;6.50;;;4.53;;
20443;SDS011;10381;53.730;10.010;2022-08-14T08:47:50;13.40;;;4.87;;
20443;SDS011;10381;53.730;10.010;2022-08-14T08:51:51;6.85;;;4.80;;
20443;SDS011;10381;53.730;10.010;2022-08-14T08:56:03;15.50;;;4.55;;
20443;SDS011;10381;53.730;10.010;2022-08-14T09:00:15;6.80;;;4.45;;
20443;SDS011;10381;53.730;10.010;2022-08-14T09:04:18;11.77;;;4.70;;
20443;SDS011;10381;53.730;10.010;2022-08-14T09:08:27;9.93;;;5.22;;
20443;SDS011;10381;53.730;10.010;2022-08-14T09:12:28;5.85;;;4.35;;
20443;SDS011;10381;53.730;10.010;2022-08-14T09:16:29;8.25;;;5.18;;
20443;SDS011;10381;53.730;10.010;2022-08-14T09:20:29;7.47;;;5.28;;
20443;SDS011;10381;53.730;10.010;2022-08-14T09:24:30;6.72;;;5.00;;
20443;SDS011;10381;53.730;10.010;2022-08-14T09:28:32;9.10;;;4.90;;
20443;SDS011;10381;53.730;10.010;2022-08-14T09:32:40;8.23;;;4.83;;
20443;SDS011;10381;53.730;10.010;2022-08-14T09:46:29;8.07;;;4.90;;
20443;SDS011;10381;53.730;10.010;2022-08-14T09:50:31;8.57;;;4.68;;
20443;SDS011;10381;53.730;10.010;2022-08-14T09:54:44;6.40;;;4.97;;
20443;SDS011;10381;53.730;10.010;2022-08-14T09:58:46;6.15;;;4.72;;
20443;SDS011;10381;53.730;10.010;2022-08-14T10:02:50;10.30;;;5.30;;
20443;SDS011;10381;53.730;10.010;2022-08-14T10:06:52;10.20;;;5.65;;
20443;SDS011;10381;53.730;10.010;2022-08-14T10:10:53;7.10;;;5.07;;
20443;SDS011;10381;53.730;10.010;2022-08-14T10:14:53;7.38;;;4.85;;
20443;SDS011;10381;53.730;10.010;2022-08-14T10:19:13;12.53;;;6.07;;
20443;SDS011;10381;53.730;10.010;2022-08-14T10:23:19;6.95;;;5.65;;
20443;SDS011;10381;53.730;10.010;2022-08-14T10:27:22;8.25;;;5.72;;
20443;SDS011;10381;53.730;10.010;2022-08-14T10:31:26;8.57;;;5.78;;
20443;SDS011;10381;53.730;10.010;2022-08-14T10:35:40;13.13;;;6.35;;
20443;SDS011;10381;53.730;10.010;2022-08-14T10:39:43;6.47;;;5.28;;
20443;SDS011;10381;53.730;10.010;2022-08-14T10:44:03;8.10;;;5.32;;
20443;SDS011;10381;53.730;10.010;2022-08-14T10:48:14;9.10;;;5.53;;
20443;SDS011;10381;53.730;10.010;2022-08-14T10:52:19;14.25;;;5.03;;
20443;SDS011;10381;53.730;10.010;2022-08-14T10:56:29;6.20;;;4.95;;
20443;SDS011;10381;53.730;10.010;2022-08-14T11:00:34;8.73;;;5.65;;
20443;SDS011;10381;53.730;10.010;2022-08-14T11:04:35;21.92;;;5.80;;
20443;SDS011;10381;53.730;10.010;2022-08-14T11:08:36;7.50;;;5.37;;
20443;SDS011;10381;53.730;10.010;2022-08-14T11:16:46;8.20;;;5.90;;
20443;SDS011;10381;53.730;10.010;2022-08-14T11:20:50;8.25;;;5.85;;
20443;SDS011;10381;53.730;10.010;2022-08-14T11:24:54;7.13;;;5.57;;
20443;SDS011;10381;53.730;10.010;2022-08-14T11:29:00;13.57;;;6.00;;
20443;SDS011;10381;53.730;10.010;2022-08-14T11:33:04;7.97;;;5.30;;
20443;SDS011;10381;53.730;10.010;2022-08-14T11:37:11;10.95;;;5.65;;
20443;SDS011;10381;53.730;10.010;2022-08-14T11:41:12;9.63;;;5.78;;
20443;SDS011;10381;53.730;10.010;2022-08-14T11:45:17;10.40;;;5.80;;
20443;SDS011;10381;53.730;10.010;2022-08-14T11:49:25;11.10;;;5.43;;
20443;SDS011;10381;53.730;10.010;2022-08-14T11:53:27;9.10;;;5.80;;
20443;SDS011;10381;53.730;10.010;2022-08-14T11:57:29;9.73;;;5.43;;
20443;SDS011;10381;53.730;10.010;2022-08-14T12:01:30;8.10;;;5.53;;
20443;SDS011;10381;53.730;10.010;2022-08-14T12:05:34;9.60;;;5.47;;
20443;SDS011;10381;53.730;10.010;2022-08-14T12:09:37;6.90;;;5.25;;
20443;SDS011;10381;53.730;10.010;2022-08-14T12:13:41;11.70;;;5.53;;
20443;SDS011;10381;53.730;10.010;2022-08-14T12:17:45;11.65;;;5.80;;
20443;SDS011;10381;53.730;10.010;2022-08-14T12:21:52;10.88;;;6.05;;
20443;SDS011;10381;53.730;10.010;2022-08-14T12:26:02;10.27;;;5.67;;
20443;SDS011;10381;53.730;10.010;2022-08-14T12:30:04;8.70;;;5.68;;
20443;SDS011;10381;53.730;10.010;2022-08-14T12:34:06;12.00;;;5.97;;
20443;SDS011;10381;53.730;10.010;2022-08-14T12:38:08;14.13;;;6.97;;
20443;SDS011;10381;53.730;10.010;2022-08-14T12:42:10;8.60;;;7.05;;
20443;SDS011;10381;53.730;10.010;2022-08-14T12:46:19;7.33;;;5.47;;
20443;SDS011;10381;53.730;10.010;2022-08-14T12:50:36;13.07;;;6.30;;
20443;SDS011;10381;53.730;10.010;2022-08-14T12:54:38;8.68;;;6.00;;
20443;SDS011;10381;53.730;10.010;2022-08-14T12:58:39;17.65;;;6.03;;
20443;SDS011;10381;53.730;10.010;2022-08-14T13:02:47;11.25;;;5.78;;
20443;SDS011;10381;53.730;10.010;2022-08-14T13:06:49;12.57;;;5.97;;
20443;SDS011;10381;53.730;10.010;2022-08-14T13:10:51;9.75;;;5.57;;
20443;SDS011;10381;53.730;10.010;2022-08-14T13:14:58;10.70;;;5.97;;
20443;SDS011;10381;53.730;10.010;2022-08-14T13:18:58;10.38;;;5.50;;
20443;SDS011;10381;53.730;10.010;2022-08-14T13:23:00;9.43;;;5.70;;
20443;SDS011;10381;53.730;10.010;2022-08-14T13:27:01;9.10;;;6.13;;
20443;SDS011;10381;53.730;10.010;2022-08-14T13:31:04;8.95;;;6.03;;
20443;SDS011;10381;53.730;10.010;2022-08-14T13:35:06;18.08;;;6.50;;
20443;SDS011;10381;53.730;10.010;2022-08-14T13:39:07;8.38;;;5.80;;
20443;SDS011;10381;53.730;10.010;2022-08-14T13:43:07;9.93;;;5.68;;
20443;SDS011;10381;53.730;10.010;2022-08-14T13:47:08;8.52;;;6.03;;
20443;SDS011;10381;53.730;10.010;2022-08-14T13:51:09;9.27;;;6.10;;
20443;SDS011;10381;53.730;10.010;2022-08-14T13:55:12;24.02;;;6.35;;
20443;SDS011;10381;53.730;10.010;2022-08-14T13:59:15;11.57;;;6.78;;
20443;SDS011;10381;53.730;10.010;2022-08-14T14:03:16;18.23;;;6.28;;
20443;SDS011;10381;53.730;10.010;2022-08-14T14:07:20;10.27;;;6.43;;
20443;SDS011;10381;53.730;10.010;2022-08-14T14:11:23;14.50;;;6.63;;
20443;SDS011;10381;53.730;10.010;2022-08-14T14:15:23;8.35;;;5.70;;
20443;SDS011;10381;53.730;10.010;2022-08-14T14:19:24;10.70;;;6.20;;
20443;SDS011;10381;53.730;10.010;2022-08-14T14:23:27;17.48;;;6.68;;
20443;SDS011;10381;53.730;10.010;2022-08-14T14:27:28;11.23;;;5.75;;
20443;SDS011;10381;53.730;10.010;2022-08-14T14:31:29;10.10;;;6.40;;
20443;SDS011;10381;53.730;10.010;2022-08-14T14:35:30;8.27;;;5.90;;
20443;SDS011;10381;53.730;10.010;2022-08-14T14:39:31;12.80;;;6.03;;
20443;SDS011;10381;53.730;10.010;2022-08-14T14:43:32;7.80;;;5.93;;
20443;SDS011;10381;53.730;10.010;2022-08-14T14:47:44;7.63;;;6.00;;
20443;SDS011;10381;53.730;10.010;2022-08-14T14:51:52;12.95;;;5.85;;
20443;SDS011;10381;53.730;10.010;2022-08-14T14:55:54;15.70;;;4.82;;
20443;SDS011;10381;53.730;10.010;2022-08-14T14:59:55;14.10;;;5.32;;
20443;SDS011;10381;53.730;10.010;2022-08-14T15:03:56;6.90;;;5.18;;
20443;SDS011;10381;53.730;10.010;2022-08-14T15:07:59;9.45;;;4.80;;
20443;SDS011;10381;53.730;10.010;2022-08-14T15:11:59;13.07;;;4.83;;
20443;SDS011;10381;53.730;10.010;2022-08-14T15:16:01;12.43;;;5.22;;
20443;SDS011;10381;53.730;10.010;2022-08-14T15:20:03;6.43;;;4.78;;
20443;SDS011;10381;53.730;10.010;2022-08-14T15:24:06;9.00;;;4.63;;
20443;SDS011;10381;53.730;10.010;2022-08-14T15:28:06;9.50;;;4.97;;
20443;SDS011;10381;53.730;10.010;2022-08-14T15:32:10;5.70;;;4.22;;
20443;SDS011;10381;53.730;10.010;2022-08-14T15:36:10;8.65;;;5.00;;
20443;SDS011;10381;53.730;10.010;2022-08-14T15:40:11;13.52;;;4.60;;
20443;SDS011;10381;53.730;10.010;2022-08-14T15:44:12;4.80;;;4.00;;
20443;SDS011;10381;53.730;10.010;2022-08-14T15:48:12;8.63;;;4.13;;
20443;SDS011;10381;53.730;10.010;2022-08-14T15:52:13;7.40;;;3.97;;
20443;SDS011;10381;53.730;10.010;2022-08-14T15:56:14;8.27;;;3.67;;
20443;SDS011;10381;53.730;10.010;2022-08-14T16:00:15;10.98;;;4.50;;
20443;SDS011;10381;53.730;10.010;2022-08-14T16:04:34;7.60;;;4.15;;
20443;SDS011;10381;53.730;10.010;2022-08-14T16:08:35;5.30;;;4.03;;
20443;SDS011;10381;53.730;10.010;2022-08-14T16:12:35;5.57;;;4.07;;
20443;SDS011;10381;53.730;10.010;2022-08-14T16:16:35;6.23;;;4.37;;
20443;SDS011;10381;53.730;10.010;2022-08-14T16:20:39;4.35;;;3.80;;
20443;SDS011;10381;53.730;10.010;2022-08-14T16:24:43;4.20;;;3.72;;
20443;SDS011;10381;53.730;10.010;2022-08-14T16:28:44;6.80;;;4.20;;
20443;SDS011;10381;53.730;10.010;2022-08-14T16:32:48;6.95;;;3.97;;
20443;SDS011;10381;53.730;10.010;2022-08-14T16:36:48;8.83;;;4.10;;
20443;SDS011;10381;53.730;10.010;2022-08-14T16:40:49;3.95;;;3.55;;
20443;SDS011;10381;53.730;10.010;2022-08-14T16:45:10;6.50;;;3.63;;
20443;SDS011;10381;53.730;10.010;2022-08-14T16:49:12;6.50;;;4.22;;
20443;SDS011;10381;53.730;10.010;2022-08-14T16:53:17;6.28;;;4.00;;
20443;SDS011;10381;53.730;10.010;2022-08-14T16:57:18;5.30;;;3.90;;
20443;SDS011;10381;53.730;10.010;2022-08-14T17:01:24;6.45;;;4.22;;
20443;SDS011;10381;53.730;10.010;2022-08-14T17:05:25;10.77;;;4.20;;
20443;SDS011;10381;53.730;10.010;2022-08-14T17:09:28;6.65;;;4.35;;
20443;SDS011;10381;53.730;10.010;2022-08-14T17:13:31;8.05;;;5.20;;
20443;SDS011;10381;53.730;10.010;2022-08-14T17:21:38;21.08;;;4.25;;
20443;SDS011;10381;53.730;10.010;2022-08-14T17:25:39;10.48;;;4.68;;
20443;SDS011;10381;53.730;10.010;2022-08-14T17:29:40;8.07;;;4.15;;
20443;SDS011;10381;53.730;10.010;2022-08-14T17:33:41;11.38;;;4.80;;
20443;SDS011;10381;53.730;10.010;2022-08-14T17:37:42;15.67;;;4.83;;
20443;SDS011;10381;53.730;10.010;2022-08-14T17:45:49;10.57;;;4.78;;
20443;SDS011;10381;53.730;10.010;2022-08-14T17:49:49;8.20;;;4.47;;
20443;SDS011;10381;53.730;10.010;2022-08-14T17:53:50;7.93;;;4.82;;
20443;SDS011;10381;53.730;10.010;2022-08-14T17:57:51;9.20;;;5.03;;
20443;SDS011;10381;53.730;10.010;2022-08-14T18:01:53;5.80;;;3.88;;
20443;SDS011;10381;53.730;10.010;2022-08-14T18:05:59;7.75;;;4.70;;
20443;SDS011;10381;53.730;10.010;2022-08-14T18:10:01;15.77;;;4.97;;
20443;SDS011;10381;53.730;10.010;2022-08-14T18:14:04;6.05;;;4.35;;
20443;SDS011;10381;53.730;10.010;2022-08-14T18:18:08;5.93;;;4.45;;
20443;SDS011;10381;53.730;10.010;2022-08-14T18:22:10;8.15;;;4.75;;
20443;SDS011;10381;53.730;10.010;2022-08-14T18:26:11;15.38;;;4.50;;
20443;SDS011;10381;53.730;10.010;2022-08-14T18:30:12;6.10;;;4.35;;
20443;SDS011;10381;53.730;10.010;2022-08-14T18:34:21;8.55;;;4.75;;
20443;SDS011;10381;53.730;10.010;2022-08-14T18:38:23;15.52;;;4.60;;
20443;SDS011;10381;53.730;10.010;2022-08-14T18:46:24;10.87;;;4.70;;
20443;SDS011;10381;53.730;10.010;2022-08-14T18:50:25;10.67;;;4.00;;
20443;SDS011;10381;53.730;10.010;2022-08-14T18:54:31;7.03;;;3.90;;
20443;SDS011;10381;53.730;10.010;2022-08-14T18:58:48;7.85;;;4.32;;
20443;SDS011;10381;53.730;10.010;2022-08-14T19:02:55;5.30;;;4.15;;
20443;SDS011;10381;53.730;10.010;2022-08-14T19:07:02;4.70;;;3.88;;
20443;SDS011;10381;53.730;10.010;2022-08-14T19:15:42;7.15;;;3.45;;
20443;SDS011;10381;53.730;10.010;2022-08-14T19:19:47;8.57;;;4.35;;
20443;SDS011;10381;53.730;10.010;2022-08-14T19:28:17;7.35;;;4.45;;
20443;SDS011;10381;53.730;10.010;2022-08-14T19:36:43;16.60;;;4.82;;
20443;SDS011;10381;53.730;10.010;2022-08-14T19:40:51;5.97;;;3.53;;
20443;SDS011;10381;53.730;10.010;2022-08-14T19:44:53;13.50;;;4.15;;
20443;SDS011;10381;53.730;10.010;2022-08-14T19:48:54;6.43;;;4.18;;
20443;SDS011;10381;53.730;10.010;2022-08-14T19:53:13;9.25;;;3.50;;
20443;SDS011;10381;53.730;10.010;2022-08-14T19:57:18;5.00;;;3.97;;
20443;SDS011;10381;53.730;10.010;2022-08-14T20:01:24;5.90;;;3.75;;
20443;SDS011;10381;53.730;10.010;2022-08-14T20:05:27;10.02;;;4.10;;
20443;SDS011;10381;53.730;10.010;2022-08-14T20:09:33;9.15;;;3.90;;
20443;SDS011;10381;53.730;10.010;2022-08-14T20:13:38;8.05;;;3.47;;
20443;SDS011;10381;53.730;10.010;2022-08-14T20:17:39;6.65;;;4.28;;
20443;SDS011;10381;53.730;10.010;2022-08-14T20:21:47;9.88;;;4.93;;
20443;SDS011;10381;53.730;10.010;2022-08-14T20:25:53;6.60;;;3.83;;
20443;SDS011;10381;53.730;10.010;2022-08-14T20:34:12;7.00;;;3.78;;
20443;SDS011;10381;53.730;10.010;2022-08-14T20:42:16;9.68;;;4.20;;
20443;SDS011;10381;53.730;10.010;2022-08-14T20:46:37;9.60;;;3.88;;
20443;SDS011;10381;53.730;10.010;2022-08-14T20:50:38;12.13;;;3.90;;
20443;SDS011;10381;53.730;10.010;2022-08-14T20:54:39;11.55;;;4.05;;
20443;SDS011;10381;53.730;10.010;2022-08-14T20:58:39;6.20;;;3.60;;
20443;SDS011;10381;53.730;10.010;2022-08-14T21:02:42;6.30;;;3.97;;
20443;SDS011;10381;53.730;10.010;2022-08-14T21:06:42;16.02;;;4.38;;
20443;SDS011;10381;53.730;10.010;2022-08-14T21:10:43;10.70;;;4.07;;
20443;SDS011;10381;53.730;10.010;2022-08-14T21:14:46;14.23;;;4.32;;
20443;SDS011;10381;53.730;10.010;2022-08-14T21:18:46;5.10;;;3.43;;
20443;SDS011;10381;53.730;10.010;2022-08-14T21:22:48;7.47;;;3.75;;
20443;SDS011;10381;53.730;10.010;2022-08-14T21:26:49;9.68;;;4.07;;
20443;SDS011;10381;53.730;10.010;2022-08-14T21:30:50;11.43;;;5.13;;
20443;SDS011;10381;53.730;10.010;2022-08-14T21:34:53;11.65;;;4.35;;
20443;SDS011;10381;53.730;10.010;2022-08-14T21:38:54;9.37;;;4.40;;
20443;SDS011;10381;53.730;10.010;2022-08-14T21:42:54;12.23;;;5.03;;
20443;SDS011;10381;53.730;10.010;2022-08-14T21:46:55;20.03;;;4.50;;
20443;SDS011;10381;53.730;10.010;2022-08-14T21:50:59;9.10;;;4.15;;
20443;SDS011;10381;53.730;10.010;2022-08-14T21:55:05;7.40;;;4.03;;
20443;SDS011;10381;53.730;10.010;2022-08-14T21:59:09;5.80;;;4.18;;
20443;SDS011;10381;53.730;10.010;2022-08-14T22:03:15;9.82;;;4.00;;
20443;SDS011;10381;53.730;10.010;2022-08-14T22:07:18;8.10;;;4.15;;
20443;SDS011;10381;53.730;10.010;2022-08-14T22:11:18;5.47;;;3.93;;
20443;SDS011;10381;53.730;10.010;2022-08-14T22:15:19;7.68;;;4.60;;
20443;SDS011;10381;53.730;10.010;2022-08-14T22:19:20;10.70;;;4.32;;
20443;SDS011;10381;53.730;10.010;2022-08-14T22:23:21;6.15;;;4.00;;
20443;SDS011;10381;53.730;10.010;2022-08-14T22:27:23;9.05;;;4.28;;
20443;SDS011;10381;53.730;10.010;2022-08-14T22:31:23;11.13;;;4.45;;
20443;SDS011;10381;53.730;10.010;2022-08-14T22:35:24;11.18;;;4.20;;
20443;SDS011;10381;53.730;10.010;2022-08-14T22:39:27;7.72;;;3.72;;
20443;SDS011;10381;53.730;10.010;2022-08-14T22:43:30;6.18;;;4.10;;
20443;SDS011;10381;53.730;10.010;2022-08-14T22:47:30;5.35;;;4.10;;
20443;SDS011;10381;53.730;10.010;2022-08-14T22:51:32;6.40;;;4.47;;
20443;SDS011;10381;53.730;10.010;2022-08-14T22:55:33;8.60;;;4.43;;
20443;SDS011;10381;53.730;10.010;2022-08-14T22:59:34;12.52;;;4.35;;
20443;SDS011;10381;53.730;10.010;2022-08-14T23:03:35;22.17;;;4.20;;
20443;SDS011;10381;53.730;10.010;2022-08-14T23:07:35;10.48;;;4.20;;
20443;SDS011;10381;53.730;10.010;2022-08-14T23:11:36;6.38;;;3.88;;
20443;SDS011;10381;53.730;10.010;2022-08-14T23:15:36;7.60;;;4.35;;
20443;SDS011;10381;53.730;10.010;2022-08-14T23:19:37;13.38;;;4.68;;
20443;SDS011;10381;53.730;10.010;2022-08-14T23:23:42;11.38;;;4.93;;
20443;SDS011;10381;53.730;10.010;2022-08-14T23:27:42;10.63;;;5.15;;
20443;SDS011;10381;53.730;10.010;2022-08-14T23:31:42;10.50;;;4.43;;
20443;SDS011;10381;53.730;10.010;2022-08-14T23:35:43;9.05;;;5.20;;
20443;SDS011;10381;53.730;10.010;2022-08-14T23:39:45;6.95;;;4.95;;
20443;SDS011;10381;53.730;10.010;2022-08-14T23:43:47;7.10;;;4.93;;
20443;SDS011;10381;53.730;10.010;2022-08-14T23:47:49;10.85;;;5.43;;
20443;SDS011;10381;53.730;10.010;2022-08-14T23:51:49;8.63;;;5.60;;
20443;SDS011;10381;53.730;10.010;2022-08-14T23:55:50;11.07;;;5.87;;
20443;SDS011;10381;53.730;10.010;2022-08-14T23:59:51;16.33;;;5.82;;
